sensor_id;sensor_type;location;lat;lon;timestamp;P1;durP1;ratioP1;P2;durP2;ratioP2
40991;SDS011;29633;49.168;9.848;2022-08-21T00:02:02;0.80;;;0.70;;
40991;SDS011;29633;49.168;9.848;2022-08-21T00:04:29;1.17;;;0.82;;
40991;SDS011;29633;49.168;9.848;2022-08-21T00:06:55;0.98;;;0.80;;
40991;SDS011;29633;49.168;9.848;2022-08-21T00:09:23;1.02;;;0.85;;
40991;SDS011;29633;49.168;9.848;2022-08-21T00:11:48;1.17;;;0.77;;
40991;SDS011;29633;49.168;9.848;2022-08-21T00:14:15;0.70;;;0.70;;
40991;SDS011;29633;49.168;9.848;2022-08-21T00:16:41;1.92;;;0.70;;
40991;SDS011;29633;49.168;9.848;2022-08-21T00:19:07;1.20;;;0.88;;
40991;SDS011;29633;49.168;9.848;2022-08-21T00:21:33;1.95;;;1.08;;
40991;SDS011;29633;49.168;9.848;2022-08-21T00:24:01;1.27;;;1.00;;
40991;SDS011;29633;49.168;9.848;2022-08-21T00:26:27;1.23;;;0.90;;
40991;SDS011;29633;49.168;9.848;2022-08-21T00:28:53;1.70;;;0.90;;
40991;SDS011;29633;49.168;9.848;2022-08-21T00:31:19;1.58;;;1.00;;
40991;SDS011;29633;49.168;9.848;2022-08-21T00:33:44;2.15;;;0.98;;
40991;SDS011;29633;49.168;9.848;2022-08-21T00:36:12;2.22;;;1.17;;
40991;SDS011;29633;49.168;9.848;2022-08-21T00:38:38;1.25;;;1.15;;
40991;SDS011;29633;49.168;9.848;2022-08-21T00:41:05;2.13;;;1.23;;
40991;SDS011;29633;49.168;9.848;2022-08-21T00:43:34;1.70;;;1.35;;
40991;SDS011;29633;49.168;9.848;2022-08-21T00:46:02;2.15;;;1.67;;
40991;SDS011;29633;49.168;9.848;2022-08-21T00:48:30;1.85;;;1.67;;
40991;SDS011;29633;49.168;9.848;2022-08-21T00:51:17;1.92;;;1.70;;
40991;SDS011;29633;49.168;9.848;2022-08-21T00:53:51;1.65;;;1.55;;
40991;SDS011;29633;49.168;9.848;2022-08-21T00:56:22;2.00;;;1.80;;
40991;SDS011;29633;49.168;9.848;2022-08-21T00:58:48;1.58;;;1.48;;
40991;SDS011;29633;49.168;9.848;2022-08-21T01:01:16;2.33;;;1.23;;
40991;SDS011;29633;49.168;9.848;2022-08-21T01:03:42;3.33;;;1.33;;
40991;SDS011;29633;49.168;9.848;2022-08-21T01:06:08;2.28;;;1.10;;
40991;SDS011;29633;49.168;9.848;2022-08-21T01:08:34;1.40;;;1.20;;
40991;SDS011;29633;49.168;9.848;2022-08-21T01:11:01;1.50;;;1.27;;
40991;SDS011;29633;49.168;9.848;2022-08-21T01:13:29;1.25;;;1.15;;
40991;SDS011;29633;49.168;9.848;2022-08-21T01:15:58;1.65;;;1.25;;
40991;SDS011;29633;49.168;9.848;2022-08-21T01:18:28;1.50;;;1.27;;
40991;SDS011;29633;49.168;9.848;2022-08-21T01:20:59;2.00;;;1.30;;
40991;SDS011;29633;49.168;9.848;2022-08-21T01:23:35;2.15;;;1.25;;
40991;SDS011;29633;49.168;9.848;2022-08-21T01:26:04;2.67;;;1.13;;
40991;SDS011;29633;49.168;9.848;2022-08-21T01:28:33;1.13;;;1.02;;
40991;SDS011;29633;49.168;9.848;2022-08-21T01:31:07;1.05;;;0.95;;
40991;SDS011;29633;49.168;9.848;2022-08-21T01:33:35;1.75;;;1.05;;
40991;SDS011;29633;49.168;9.848;2022-08-21T01:36:02;1.13;;;1.02;;
40991;SDS011;29633;49.168;9.848;2022-08-21T01:38:28;1.67;;;1.40;;
40991;SDS011;29633;49.168;9.848;2022-08-21T01:40:54;2.30;;;1.27;;
40991;SDS011;29633;49.168;9.848;2022-08-21T01:43:20;2.55;;;1.55;;
40991;SDS011;29633;49.168;9.848;2022-08-21T01:45:45;1.92;;;1.30;;
40991;SDS011;29633;49.168;9.848;2022-08-21T01:48:11;1.42;;;1.23;;
40991;SDS011;29633;49.168;9.848;2022-08-21T01:50:37;1.30;;;1.15;;
40991;SDS011;29633;49.168;9.848;2022-08-21T01:53:03;1.55;;;1.33;;
40991;SDS011;29633;49.168;9.848;2022-08-21T01:55:29;1.90;;;1.35;;
40991;SDS011;29633;49.168;9.848;2022-08-21T01:57:56;1.40;;;1.30;;
40991;SDS011;29633;49.168;9.848;2022-08-21T02:00:24;2.25;;;1.50;;
40991;SDS011;29633;49.168;9.848;2022-08-21T02:02:50;1.55;;;1.17;;
40991;SDS011;29633;49.168;9.848;2022-08-21T02:05:17;2.05;;;1.33;;
40991;SDS011;29633;49.168;9.848;2022-08-21T02:07:45;1.52;;;1.42;;
40991;SDS011;29633;49.168;9.848;2022-08-21T02:10:16;1.60;;;1.50;;
40991;SDS011;29633;49.168;9.848;2022-08-21T02:12:48;2.88;;;1.60;;
40991;SDS011;29633;49.168;9.848;2022-08-21T02:15:14;1.40;;;1.30;;
40991;SDS011;29633;49.168;9.848;2022-08-21T02:17:45;1.98;;;1.40;;
40991;SDS011;29633;49.168;9.848;2022-08-21T02:20:19;1.40;;;1.30;;
40991;SDS011;29633;49.168;9.848;2022-08-21T02:22:54;2.58;;;1.75;;
40991;SDS011;29633;49.168;9.848;2022-08-21T02:25:21;1.63;;;1.50;;
40991;SDS011;29633;49.168;9.848;2022-08-21T02:27:49;1.95;;;1.30;;
40991;SDS011;29633;49.168;9.848;2022-08-21T02:30:18;1.63;;;1.45;;
40991;SDS011;29633;49.168;9.848;2022-08-21T02:32:52;1.90;;;1.50;;
40991;SDS011;29633;49.168;9.848;2022-08-21T02:35:18;2.10;;;1.77;;
40991;SDS011;29633;49.168;9.848;2022-08-21T02:37:47;1.65;;;1.40;;
40991;SDS011;29633;49.168;9.848;2022-08-21T02:40:18;2.92;;;1.50;;
40991;SDS011;29633;49.168;9.848;2022-08-21T02:42:47;1.65;;;1.40;;
40991;SDS011;29633;49.168;9.848;2022-08-21T02:45:13;3.17;;;1.55;;
40991;SDS011;29633;49.168;9.848;2022-08-21T02:47:50;1.90;;;1.42;;
40991;SDS011;29633;49.168;9.848;2022-08-21T02:50:20;2.25;;;1.52;;
40991;SDS011;29633;49.168;9.848;2022-08-21T02:52:52;2.10;;;1.52;;
40991;SDS011;29633;49.168;9.848;2022-08-21T02:55:19;2.03;;;1.52;;
40991;SDS011;29633;49.168;9.848;2022-08-21T02:57:46;1.80;;;1.67;;
40991;SDS011;29633;49.168;9.848;2022-08-21T03:00:13;1.63;;;1.52;;
40991;SDS011;29633;49.168;9.848;2022-08-21T03:02:40;1.80;;;1.40;;
40991;SDS011;29633;49.168;9.848;2022-08-21T03:05:07;1.63;;;1.52;;
40991;SDS011;29633;49.168;9.848;2022-08-21T03:07:35;1.92;;;1.50;;
40991;SDS011;29633;49.168;9.848;2022-08-21T03:10:03;2.13;;;1.30;;
40991;SDS011;29633;49.168;9.848;2022-08-21T03:12:29;2.95;;;1.33;;
40991;SDS011;29633;49.168;9.848;2022-08-21T03:14:55;2.42;;;1.50;;
40991;SDS011;29633;49.168;9.848;2022-08-21T03:17:21;2.45;;;1.50;;
40991;SDS011;29633;49.168;9.848;2022-08-21T03:19:47;1.45;;;1.35;;
40991;SDS011;29633;49.168;9.848;2022-08-21T03:22:12;1.50;;;1.33;;
40991;SDS011;29633;49.168;9.848;2022-08-21T03:24:38;1.48;;;1.38;;
40991;SDS011;29633;49.168;9.848;2022-08-21T03:27:04;1.70;;;1.60;;
40991;SDS011;29633;49.168;9.848;2022-08-21T03:29:30;2.08;;;1.70;;
40991;SDS011;29633;49.168;9.848;2022-08-21T03:31:55;2.10;;;1.70;;
40991;SDS011;29633;49.168;9.848;2022-08-21T03:34:21;3.75;;;1.88;;
40991;SDS011;29633;49.168;9.848;2022-08-21T03:36:47;1.67;;;1.58;;
40991;SDS011;29633;49.168;9.848;2022-08-21T03:39:14;2.33;;;1.65;;
40991;SDS011;29633;49.168;9.848;2022-08-21T03:41:41;1.77;;;1.35;;
40991;SDS011;29633;49.168;9.848;2022-08-21T03:44:07;2.47;;;1.48;;
40991;SDS011;29633;49.168;9.848;2022-08-21T03:46:33;2.10;;;1.52;;
40991;SDS011;29633;49.168;9.848;2022-08-21T03:48:59;2.00;;;1.50;;
40991;SDS011;29633;49.168;9.848;2022-08-21T03:51:25;1.85;;;1.38;;
40991;SDS011;29633;49.168;9.848;2022-08-21T03:53:51;1.58;;;1.48;;
40991;SDS011;29633;49.168;9.848;2022-08-21T03:56:17;1.85;;;1.45;;
40991;SDS011;29633;49.168;9.848;2022-08-21T03:58:43;1.92;;;1.27;;
40991;SDS011;29633;49.168;9.848;2022-08-21T04:01:09;1.50;;;1.40;;
40991;SDS011;29633;49.168;9.848;2022-08-21T04:03:35;1.40;;;1.30;;
40991;SDS011;29633;49.168;9.848;2022-08-21T04:06:02;2.08;;;1.48;;
40991;SDS011;29633;49.168;9.848;2022-08-21T04:08:29;1.67;;;1.52;;
40991;SDS011;29633;49.168;9.848;2022-08-21T04:10:55;1.70;;;1.55;;
40991;SDS011;29633;49.168;9.848;2022-08-21T04:13:23;1.73;;;1.40;;
40991;SDS011;29633;49.168;9.848;2022-08-21T04:15:51;1.40;;;1.10;;
40991;SDS011;29633;49.168;9.848;2022-08-21T04:18:17;3.22;;;1.30;;
40991;SDS011;29633;49.168;9.848;2022-08-21T04:20:43;1.60;;;1.33;;
40991;SDS011;29633;49.168;9.848;2022-08-21T04:23:11;1.33;;;1.23;;
40991;SDS011;29633;49.168;9.848;2022-08-21T04:25:37;2.03;;;1.40;;
40991;SDS011;29633;49.168;9.848;2022-08-21T04:28:03;1.50;;;1.40;;
40991;SDS011;29633;49.168;9.848;2022-08-21T04:30:29;1.52;;;1.33;;
40991;SDS011;29633;49.168;9.848;2022-08-21T04:32:55;1.83;;;1.50;;
40991;SDS011;29633;49.168;9.848;2022-08-21T04:35:23;1.27;;;1.17;;
40991;SDS011;29633;49.168;9.848;2022-08-21T04:37:51;1.98;;;1.40;;
40991;SDS011;29633;49.168;9.848;2022-08-21T04:40:18;3.67;;;1.60;;
40991;SDS011;29633;49.168;9.848;2022-08-21T04:42:47;1.70;;;1.40;;
40991;SDS011;29633;49.168;9.848;2022-08-21T04:47:50;2.05;;;1.50;;
40991;SDS011;29633;49.168;9.848;2022-08-21T04:50:17;3.58;;;1.45;;
40991;SDS011;29633;49.168;9.848;2022-08-21T04:52:43;2.50;;;1.40;;
40991;SDS011;29633;49.168;9.848;2022-08-21T04:55:09;1.38;;;1.27;;
40991;SDS011;29633;49.168;9.848;2022-08-21T04:57:36;2.25;;;1.10;;
40991;SDS011;29633;49.168;9.848;2022-08-21T05:00:04;2.13;;;1.38;;
40991;SDS011;29633;49.168;9.848;2022-08-21T05:02:31;1.55;;;1.17;;
40991;SDS011;29633;49.168;9.848;2022-08-21T05:04:58;1.30;;;1.20;;
40991;SDS011;29633;49.168;9.848;2022-08-21T05:07:26;1.35;;;1.25;;
40991;SDS011;29633;49.168;9.848;2022-08-21T05:09:54;1.65;;;1.50;;
40991;SDS011;29633;49.168;9.848;2022-08-21T05:12:21;1.60;;;1.45;;
40991;SDS011;29633;49.168;9.848;2022-08-21T05:14:47;2.08;;;1.77;;
40991;SDS011;29633;49.168;9.848;2022-08-21T05:17:14;1.63;;;1.52;;
40991;SDS011;29633;49.168;9.848;2022-08-21T05:19:39;2.47;;;1.70;;
40991;SDS011;29633;49.168;9.848;2022-08-21T05:22:05;1.80;;;1.60;;
40991;SDS011;29633;49.168;9.848;2022-08-21T05:24:31;2.05;;;1.63;;
40991;SDS011;29633;49.168;9.848;2022-08-21T05:26:58;3.05;;;1.75;;
40991;SDS011;29633;49.168;9.848;2022-08-21T05:29:24;2.42;;;1.90;;
40991;SDS011;29633;49.168;9.848;2022-08-21T05:31:50;1.90;;;1.70;;
40991;SDS011;29633;49.168;9.848;2022-08-21T05:34:22;1.60;;;1.50;;
40991;SDS011;29633;49.168;9.848;2022-08-21T05:36:48;3.33;;;1.50;;
40991;SDS011;29633;49.168;9.848;2022-08-21T05:39:14;2.28;;;1.50;;
40991;SDS011;29633;49.168;9.848;2022-08-21T05:41:40;2.05;;;1.85;;
40991;SDS011;29633;49.168;9.848;2022-08-21T05:44:06;2.22;;;1.98;;
40991;SDS011;29633;49.168;9.848;2022-08-21T05:46:32;2.00;;;1.90;;
40991;SDS011;29633;49.168;9.848;2022-08-21T05:48:58;3.30;;;2.10;;
40991;SDS011;29633;49.168;9.848;2022-08-21T05:51:23;2.17;;;1.98;;
40991;SDS011;29633;49.168;9.848;2022-08-21T05:53:49;2.97;;;2.20;;
40991;SDS011;29633;49.168;9.848;2022-08-21T05:56:15;2.28;;;2.08;;
40991;SDS011;29633;49.168;9.848;2022-08-21T05:58:41;3.42;;;2.47;;
40991;SDS011;29633;49.168;9.848;2022-08-21T06:01:08;2.72;;;2.42;;
40991;SDS011;29633;49.168;9.848;2022-08-21T06:03:35;2.25;;;2.10;;
40991;SDS011;29633;49.168;9.848;2022-08-21T06:06:04;2.47;;;2.28;;
40991;SDS011;29633;49.168;9.848;2022-08-21T06:08:31;3.60;;;2.63;;
40991;SDS011;29633;49.168;9.848;2022-08-21T06:10:58;3.30;;;2.63;;
40991;SDS011;29633;49.168;9.848;2022-08-21T06:13:25;2.47;;;2.28;;
40991;SDS011;29633;49.168;9.848;2022-08-21T06:16:06;4.13;;;2.30;;
40991;SDS011;29633;49.168;9.848;2022-08-21T06:18:42;2.67;;;2.47;;
40991;SDS011;29633;49.168;9.848;2022-08-21T06:21:10;2.72;;;2.50;;
40991;SDS011;29633;49.168;9.848;2022-08-21T06:23:37;4.15;;;2.38;;
40991;SDS011;29633;49.168;9.848;2022-08-21T06:26:04;2.58;;;2.38;;
40991;SDS011;29633;49.168;9.848;2022-08-21T06:28:32;2.70;;;2.30;;
40991;SDS011;29633;49.168;9.848;2022-08-21T06:30:58;2.72;;;2.53;;
40991;SDS011;29633;49.168;9.848;2022-08-21T06:33:34;2.88;;;2.55;;
40991;SDS011;29633;49.168;9.848;2022-08-21T06:36:00;3.17;;;2.88;;
40991;SDS011;29633;49.168;9.848;2022-08-21T06:38:25;3.85;;;2.92;;
40991;SDS011;29633;49.168;9.848;2022-08-21T06:40:51;3.10;;;2.80;;
40991;SDS011;29633;49.168;9.848;2022-08-21T06:43:17;3.47;;;3.05;;
40991;SDS011;29633;49.168;9.848;2022-08-21T06:45:42;3.20;;;2.90;;
40991;SDS011;29633;49.168;9.848;2022-08-21T06:48:09;2.92;;;2.58;;
40991;SDS011;29633;49.168;9.848;2022-08-21T06:50:35;3.10;;;2.80;;
40991;SDS011;29633;49.168;9.848;2022-08-21T06:53:06;3.05;;;2.85;;
40991;SDS011;29633;49.168;9.848;2022-08-21T06:55:34;3.22;;;2.92;;
40991;SDS011;29633;49.168;9.848;2022-08-21T06:58:01;3.10;;;2.83;;
40991;SDS011;29633;49.168;9.848;2022-08-21T07:00:28;3.22;;;2.80;;
40991;SDS011;29633;49.168;9.848;2022-08-21T07:02:54;3.47;;;3.10;;
40991;SDS011;29633;49.168;9.848;2022-08-21T07:05:21;3.45;;;2.85;;
40991;SDS011;29633;49.168;9.848;2022-08-21T07:07:47;5.32;;;2.75;;
40991;SDS011;29633;49.168;9.848;2022-08-21T07:10:14;2.92;;;2.70;;
40991;SDS011;29633;49.168;9.848;2022-08-21T07:12:40;3.88;;;2.38;;
40991;SDS011;29633;49.168;9.848;2022-08-21T07:15:06;4.38;;;2.80;;
40991;SDS011;29633;49.168;9.848;2022-08-21T07:17:32;2.80;;;2.60;;
40991;SDS011;29633;49.168;9.848;2022-08-21T07:19:58;5.53;;;3.22;;
40991;SDS011;29633;49.168;9.848;2022-08-21T07:22:24;3.97;;;3.22;;
40991;SDS011;29633;49.168;9.848;2022-08-21T07:24:52;3.78;;;3.08;;
40991;SDS011;29633;49.168;9.848;2022-08-21T07:27:19;4.03;;;3.45;;
40991;SDS011;29633;49.168;9.848;2022-08-21T07:29:45;4.07;;;2.92;;
40991;SDS011;29633;49.168;9.848;2022-08-21T07:32:11;3.63;;;3.20;;
40991;SDS011;29633;49.168;9.848;2022-08-21T07:34:36;3.85;;;3.15;;
40991;SDS011;29633;49.168;9.848;2022-08-21T07:37:02;3.67;;;3.17;;
40991;SDS011;29633;49.168;9.848;2022-08-21T07:39:28;4.97;;;3.50;;
40991;SDS011;29633;49.168;9.848;2022-08-21T07:41:54;3.92;;;3.50;;
40991;SDS011;29633;49.168;9.848;2022-08-21T07:44:20;3.88;;;3.50;;
40991;SDS011;29633;49.168;9.848;2022-08-21T07:46:46;4.30;;;3.83;;
40991;SDS011;29633;49.168;9.848;2022-08-21T07:49:11;3.90;;;3.60;;
40991;SDS011;29633;49.168;9.848;2022-08-21T07:51:37;4.05;;;3.63;;
40991;SDS011;29633;49.168;9.848;2022-08-21T07:54:03;3.72;;;3.33;;
40991;SDS011;29633;49.168;9.848;2022-08-21T07:56:30;3.78;;;3.17;;
40991;SDS011;29633;49.168;9.848;2022-08-21T07:58:56;4.75;;;3.95;;
40991;SDS011;29633;49.168;9.848;2022-08-21T08:01:23;3.90;;;3.35;;
40991;SDS011;29633;49.168;9.848;2022-08-21T08:03:49;3.80;;;3.35;;
40991;SDS011;29633;49.168;9.848;2022-08-21T08:06:15;4.88;;;3.30;;
40991;SDS011;29633;49.168;9.848;2022-08-21T08:08:44;3.90;;;3.58;;
40991;SDS011;29633;49.168;9.848;2022-08-21T08:11:10;4.10;;;3.70;;
40991;SDS011;29633;49.168;9.848;2022-08-21T08:13:41;4.15;;;3.17;;
40991;SDS011;29633;49.168;9.848;2022-08-21T08:16:10;5.38;;;3.92;;
40991;SDS011;29633;49.168;9.848;2022-08-21T08:18:36;4.70;;;3.70;;
40991;SDS011;29633;49.168;9.848;2022-08-21T08:21:03;4.22;;;3.72;;
40991;SDS011;29633;49.168;9.848;2022-08-21T08:23:30;5.93;;;3.72;;
40991;SDS011;29633;49.168;9.848;2022-08-21T08:25:56;6.60;;;4.22;;
40991;SDS011;29633;49.168;9.848;2022-08-21T08:28:23;4.25;;;3.85;;
40991;SDS011;29633;49.168;9.848;2022-08-21T08:30:50;3.85;;;3.55;;
40991;SDS011;29633;49.168;9.848;2022-08-21T08:33:16;3.63;;;3.33;;
40991;SDS011;29633;49.168;9.848;2022-08-21T08:35:44;4.95;;;3.80;;
40991;SDS011;29633;49.168;9.848;2022-08-21T08:38:13;5.32;;;3.95;;
40991;SDS011;29633;49.168;9.848;2022-08-21T08:43:37;4.03;;;3.67;;
40991;SDS011;29633;49.168;9.848;2022-08-21T08:46:06;4.50;;;4.00;;
40991;SDS011;29633;49.168;9.848;2022-08-21T08:48:46;4.70;;;3.83;;
40991;SDS011;29633;49.168;9.848;2022-08-21T08:51:25;3.75;;;3.45;;
40991;SDS011;29633;49.168;9.848;2022-08-21T08:54:04;4.50;;;4.10;;
40991;SDS011;29633;49.168;9.848;2022-08-21T08:56:36;5.18;;;4.15;;
40991;SDS011;29633;49.168;9.848;2022-08-21T08:59:18;3.60;;;3.22;;
40991;SDS011;29633;49.168;9.848;2022-08-21T09:01:52;3.85;;;3.40;;
40991;SDS011;29633;49.168;9.848;2022-08-21T09:04:20;3.30;;;3.00;;
40991;SDS011;29633;49.168;9.848;2022-08-21T09:09:22;2.97;;;2.75;;
40991;SDS011;29633;49.168;9.848;2022-08-21T09:12:00;3.08;;;2.83;;
40991;SDS011;29633;49.168;9.848;2022-08-21T09:14:58;4.57;;;3.10;;
40991;SDS011;29633;49.168;9.848;2022-08-21T09:17:59;3.80;;;3.42;;
40991;SDS011;29633;49.168;9.848;2022-08-21T09:20:44;3.70;;;3.10;;
40991;SDS011;29633;49.168;9.848;2022-08-21T09:26:25;3.22;;;2.83;;
40991;SDS011;29633;49.168;9.848;2022-08-21T09:29:22;3.33;;;3.03;;
40991;SDS011;29633;49.168;9.848;2022-08-21T09:31:54;3.17;;;2.88;;
40991;SDS011;29633;49.168;9.848;2022-08-21T09:34:24;3.22;;;2.83;;
40991;SDS011;29633;49.168;9.848;2022-08-21T09:36:54;3.42;;;2.42;;
40991;SDS011;29633;49.168;9.848;2022-08-21T09:41:58;3.65;;;2.10;;
40991;SDS011;29633;49.168;9.848;2022-08-21T09:44:31;2.42;;;2.22;;
40991;SDS011;29633;49.168;9.848;2022-08-21T09:47:04;2.72;;;2.30;;
40991;SDS011;29633;49.168;9.848;2022-08-21T09:49:38;2.95;;;2.30;;
40991;SDS011;29633;49.168;9.848;2022-08-21T09:52:12;3.00;;;2.40;;
40991;SDS011;29633;49.168;9.848;2022-08-21T09:54:48;3.72;;;2.10;;
40991;SDS011;29633;49.168;9.848;2022-08-21T09:57:22;3.08;;;2.20;;
40991;SDS011;29633;49.168;9.848;2022-08-21T10:00:08;2.05;;;1.52;;
40991;SDS011;29633;49.168;9.848;2022-08-21T10:02:50;2.83;;;1.73;;
40991;SDS011;29633;49.168;9.848;2022-08-21T10:05:17;3.50;;;1.73;;
40991;SDS011;29633;49.168;9.848;2022-08-21T10:07:49;5.78;;;1.40;;
40991;SDS011;29633;49.168;9.848;2022-08-21T10:10:17;1.85;;;1.40;;
40991;SDS011;29633;49.168;9.848;2022-08-21T10:21:07;2.38;;;1.60;;
40991;SDS011;29633;49.168;9.848;2022-08-21T10:27:21;2.60;;;1.55;;
40991;SDS011;29633;49.168;9.848;2022-08-21T10:30:07;1.70;;;1.27;;
40991;SDS011;29633;49.168;9.848;2022-08-21T10:32:41;1.60;;;1.23;;
40991;SDS011;29633;49.168;9.848;2022-08-21T10:41:18;5.28;;;1.80;;
40991;SDS011;29633;49.168;9.848;2022-08-21T10:47:04;3.03;;;1.77;;
40991;SDS011;29633;49.168;9.848;2022-08-21T10:50:10;3.10;;;1.42;;
40991;SDS011;29633;49.168;9.848;2022-08-21T10:53:15;3.05;;;1.50;;
40991;SDS011;29633;49.168;9.848;2022-08-21T10:55:52;3.47;;;1.55;;
40991;SDS011;29633;49.168;9.848;2022-08-21T10:58:29;2.85;;;1.30;;
40991;SDS011;29633;49.168;9.848;2022-08-21T11:01:07;1.77;;;1.15;;
40991;SDS011;29633;49.168;9.848;2022-08-21T11:03:54;2.67;;;1.42;;
40991;SDS011;29633;49.168;9.848;2022-08-21T11:06:45;1.90;;;1.02;;
40991;SDS011;29633;49.168;9.848;2022-08-21T11:09:18;1.70;;;1.35;;
40991;SDS011;29633;49.168;9.848;2022-08-21T11:15:11;1.75;;;1.10;;
40991;SDS011;29633;49.168;9.848;2022-08-21T11:23:59;3.40;;;1.27;;
40991;SDS011;29633;49.168;9.848;2022-08-21T11:30:01;3.00;;;1.10;;
40991;SDS011;29633;49.168;9.848;2022-08-21T11:36:00;2.17;;;1.40;;
40991;SDS011;29633;49.168;9.848;2022-08-21T11:43:53;3.67;;;1.60;;
40991;SDS011;29633;49.168;9.848;2022-08-21T11:46:53;3.72;;;1.30;;
40991;SDS011;29633;49.168;9.848;2022-08-21T11:57:48;2.53;;;1.40;;
40991;SDS011;29633;49.168;9.848;2022-08-21T12:00:35;1.90;;;1.20;;
40991;SDS011;29633;49.168;9.848;2022-08-21T12:03:11;1.88;;;1.23;;
40991;SDS011;29633;49.168;9.848;2022-08-21T12:05:55;4.75;;;1.23;;
40991;SDS011;29633;49.168;9.848;2022-08-21T12:08:40;1.92;;;1.20;;
40991;SDS011;29633;49.168;9.848;2022-08-21T12:16:42;2.95;;;1.38;;
40991;SDS011;29633;49.168;9.848;2022-08-21T12:21:52;1.80;;;1.08;;
40991;SDS011;29633;49.168;9.848;2022-08-21T12:26:55;2.10;;;1.33;;
40991;SDS011;29633;49.168;9.848;2022-08-21T12:33:01;2.08;;;1.23;;
40991;SDS011;29633;49.168;9.848;2022-08-21T12:35:32;2.25;;;1.15;;
40991;SDS011;29633;49.168;9.848;2022-08-21T12:38:26;2.55;;;1.17;;
40991;SDS011;29633;49.168;9.848;2022-08-21T12:41:05;1.30;;;0.85;;
40991;SDS011;29633;49.168;9.848;2022-08-21T12:43:41;1.92;;;1.02;;
40991;SDS011;29633;49.168;9.848;2022-08-21T12:46:29;1.08;;;0.98;;
40991;SDS011;29633;49.168;9.848;2022-08-21T12:49:26;1.42;;;0.90;;
40991;SDS011;29633;49.168;9.848;2022-08-21T12:54:42;1.63;;;1.00;;
40991;SDS011;29633;49.168;9.848;2022-08-21T12:57:17;1.88;;;1.05;;
40991;SDS011;29633;49.168;9.848;2022-08-21T12:59:55;1.88;;;0.85;;
40991;SDS011;29633;49.168;9.848;2022-08-21T13:02:26;1.52;;;0.98;;
40991;SDS011;29633;49.168;9.848;2022-08-21T13:04:57;1.70;;;1.05;;
40991;SDS011;29633;49.168;9.848;2022-08-21T13:07:30;1.35;;;0.82;;
40991;SDS011;29633;49.168;9.848;2022-08-21T13:10:21;2.58;;;0.98;;
40991;SDS011;29633;49.168;9.848;2022-08-21T13:12:49;1.60;;;0.85;;
40991;SDS011;29633;49.168;9.848;2022-08-21T13:15:21;1.20;;;0.95;;
40991;SDS011;29633;49.168;9.848;2022-08-21T13:18:01;1.88;;;1.02;;
40991;SDS011;29633;49.168;9.848;2022-08-21T13:20:30;1.00;;;0.77;;
40991;SDS011;29633;49.168;9.848;2022-08-21T13:23:05;1.90;;;0.95;;
40991;SDS011;29633;49.168;9.848;2022-08-21T13:25:54;2.28;;;1.13;;
40991;SDS011;29633;49.168;9.848;2022-08-21T13:28:21;3.25;;;1.10;;
40991;SDS011;29633;49.168;9.848;2022-08-21T13:30:48;1.20;;;1.00;;
40991;SDS011;29633;49.168;9.848;2022-08-21T13:33:21;2.65;;;1.10;;
40991;SDS011;29633;49.168;9.848;2022-08-21T13:35:52;2.17;;;1.30;;
40991;SDS011;29633;49.168;9.848;2022-08-21T13:38:27;1.58;;;1.08;;
40991;SDS011;29633;49.168;9.848;2022-08-21T13:41:04;1.50;;;1.10;;
40991;SDS011;29633;49.168;9.848;2022-08-21T13:43:58;1.63;;;1.10;;
40991;SDS011;29633;49.168;9.848;2022-08-21T13:46:45;1.27;;;1.00;;
40991;SDS011;29633;49.168;9.848;2022-08-21T13:49:13;1.30;;;1.00;;
40991;SDS011;29633;49.168;9.848;2022-08-21T13:51:42;10.25;;;1.13;;
40991;SDS011;29633;49.168;9.848;2022-08-21T13:54:22;1.70;;;0.90;;
40991;SDS011;29633;49.168;9.848;2022-08-21T13:56:54;1.27;;;0.95;;
40991;SDS011;29633;49.168;9.848;2022-08-21T13:59:38;1.92;;;0.90;;
40991;SDS011;29633;49.168;9.848;2022-08-21T14:04:51;1.65;;;0.90;;
40991;SDS011;29633;49.168;9.848;2022-08-21T14:07:33;1.58;;;1.00;;
40991;SDS011;29633;49.168;9.848;2022-08-21T14:10:25;1.75;;;1.00;;
40991;SDS011;29633;49.168;9.848;2022-08-21T14:12:57;2.58;;;1.23;;
40991;SDS011;29633;49.168;9.848;2022-08-21T14:15:29;1.42;;;1.10;;
40991;SDS011;29633;49.168;9.848;2022-08-21T14:18:13;2.88;;;1.30;;
40991;SDS011;29633;49.168;9.848;2022-08-21T14:20:44;1.65;;;1.17;;
40991;SDS011;29633;49.168;9.848;2022-08-21T14:23:11;2.70;;;1.10;;
40991;SDS011;29633;49.168;9.848;2022-08-21T14:25:40;1.75;;;1.23;;
40991;SDS011;29633;49.168;9.848;2022-08-21T14:30:52;1.30;;;1.10;;
40991;SDS011;29633;49.168;9.848;2022-08-21T14:33:27;1.42;;;1.17;;
40991;SDS011;29633;49.168;9.848;2022-08-21T14:35:56;1.25;;;1.10;;
40991;SDS011;29633;49.168;9.848;2022-08-21T14:38:23;1.90;;;1.27;;
40991;SDS011;29633;49.168;9.848;2022-08-21T14:40:54;1.65;;;1.10;;
40991;SDS011;29633;49.168;9.848;2022-08-21T14:43:24;2.72;;;1.23;;
40991;SDS011;29633;49.168;9.848;2022-08-21T14:45:52;1.63;;;1.10;;
40991;SDS011;29633;49.168;9.848;2022-08-21T14:48:18;1.60;;;1.13;;
40991;SDS011;29633;49.168;9.848;2022-08-21T14:50:44;2.97;;;1.20;;
40991;SDS011;29633;49.168;9.848;2022-08-21T14:53:10;2.15;;;1.38;;
40991;SDS011;29633;49.168;9.848;2022-08-21T14:55:36;1.33;;;1.20;;
40991;SDS011;29633;49.168;9.848;2022-08-21T14:58:22;1.77;;;1.10;;
40991;SDS011;29633;49.168;9.848;2022-08-21T15:00:49;1.65;;;1.27;;
40991;SDS011;29633;49.168;9.848;2022-08-21T15:03:17;3.42;;;1.20;;
40991;SDS011;29633;49.168;9.848;2022-08-21T15:05:44;1.55;;;1.13;;
40991;SDS011;29633;49.168;9.848;2022-08-21T15:08:09;1.95;;;1.20;;
40991;SDS011;29633;49.168;9.848;2022-08-21T15:10:35;1.35;;;1.00;;
40991;SDS011;29633;49.168;9.848;2022-08-21T15:13:02;1.20;;;0.90;;
40991;SDS011;29633;49.168;9.848;2022-08-21T15:15:29;3.97;;;1.30;;
40991;SDS011;29633;49.168;9.848;2022-08-21T15:17:59;1.17;;;1.02;;
40991;SDS011;29633;49.168;9.848;2022-08-21T15:20:24;2.17;;;1.27;;
40991;SDS011;29633;49.168;9.848;2022-08-21T15:22:50;1.70;;;1.10;;
40991;SDS011;29633;49.168;9.848;2022-08-21T15:25:16;2.22;;;1.20;;
40991;SDS011;29633;49.168;9.848;2022-08-21T15:27:42;2.10;;;1.27;;
40991;SDS011;29633;49.168;9.848;2022-08-21T15:30:08;2.53;;;1.25;;
40991;SDS011;29633;49.168;9.848;2022-08-21T15:32:34;2.55;;;1.20;;
40991;SDS011;29633;49.168;9.848;2022-08-21T15:35:00;1.73;;;1.15;;
40991;SDS011;29633;49.168;9.848;2022-08-21T15:37:27;4.57;;;1.30;;
40991;SDS011;29633;49.168;9.848;2022-08-21T15:39:53;1.55;;;1.10;;
40991;SDS011;29633;49.168;9.848;2022-08-21T15:42:19;1.77;;;1.10;;
40991;SDS011;29633;49.168;9.848;2022-08-21T15:44:46;1.20;;;1.00;;
40991;SDS011;29633;49.168;9.848;2022-08-21T15:47:14;1.27;;;1.13;;
40991;SDS011;29633;49.168;9.848;2022-08-21T15:49:43;1.90;;;1.17;;
40991;SDS011;29633;49.168;9.848;2022-08-21T15:52:13;1.65;;;1.00;;
40991;SDS011;29633;49.168;9.848;2022-08-21T15:54:41;2.75;;;1.08;;
40991;SDS011;29633;49.168;9.848;2022-08-21T15:57:08;1.33;;;0.90;;
40991;SDS011;29633;49.168;9.848;2022-08-21T15:59:43;1.35;;;1.20;;
40991;SDS011;29633;49.168;9.848;2022-08-21T16:02:17;1.50;;;1.08;;
40991;SDS011;29633;49.168;9.848;2022-08-21T16:04:51;2.67;;;1.10;;
40991;SDS011;29633;49.168;9.848;2022-08-21T16:07:18;12.48;;;8.82;;
40991;SDS011;29633;49.168;9.848;2022-08-21T16:09:44;11.65;;;10.35;;
40991;SDS011;29633;49.168;9.848;2022-08-21T16:12:11;4.70;;;3.92;;
40991;SDS011;29633;49.168;9.848;2022-08-21T16:14:44;2.28;;;1.90;;
40991;SDS011;29633;49.168;9.848;2022-08-21T16:17:10;1.35;;;1.10;;
40991;SDS011;29633;49.168;9.848;2022-08-21T16:19:36;1.75;;;1.20;;
40991;SDS011;29633;49.168;9.848;2022-08-21T16:22:02;2.53;;;1.38;;
40991;SDS011;29633;49.168;9.848;2022-08-21T16:24:28;1.38;;;1.20;;
40991;SDS011;29633;49.168;9.848;2022-08-21T16:26:54;1.98;;;1.02;;
40991;SDS011;29633;49.168;9.848;2022-08-21T16:29:20;1.20;;;1.08;;
40991;SDS011;29633;49.168;9.848;2022-08-21T16:31:47;2.58;;;1.42;;
40991;SDS011;29633;49.168;9.848;2022-08-21T16:34:16;1.65;;;1.23;;